sensor_id;sensor_type;location;lat;lon;timestamp;pressure;altitude;pressure_sealevel;temperature
10058;BMP180;5068;51.286;7.518;2024-02-28T00:01:32;99616.00;;;3.90
10058;BMP180;5068;51.286;7.518;2024-02-28T00:03:05;99620.00;;;3.90
10058;BMP180;5068;51.286;7.518;2024-02-28T00:04:40;99621.00;;;3.80
10058;BMP180;5068;51.286;7.518;2024-02-28T00:06:16;99618.00;;;3.80
10058;BMP180;5068;51.286;7.518;2024-02-28T00:07:48;99619.00;;;3.80
10058;BMP180;5068;51.286;7.518;2024-02-28T00:09:22;99624.00;;;3.80
10058;BMP180;5068;51.286;7.518;2024-02-28T00:10:54;99636.00;;;3.80
10058;BMP180;5068;51.286;7.518;2024-02-28T00:12:28;99626.00;;;3.80
10058;BMP180;5068;51.286;7.518;2024-02-28T00:14:00;99631.00;;;3.80
10058;BMP180;5068;51.286;7.518;2024-02-28T00:15:34;99625.00;;;3.80
10058;BMP180;5068;51.286;7.518;2024-02-28T00:17:08;99629.00;;;3.80
10058;BMP180;5068;51.286;7.518;2024-02-28T00:18:41;99623.00;;;3.80
10058;BMP180;5068;51.286;7.518;2024-02-28T00:20:14;99625.00;;;3.90
10058;BMP180;5068;51.286;7.518;2024-02-28T00:21:47;99621.00;;;3.80
10058;BMP180;5068;51.286;7.518;2024-02-28T00:23:20;99633.00;;;3.90
10058;BMP180;5068;51.286;7.518;2024-02-28T00:24:53;99627.00;;;3.90
10058;BMP180;5068;51.286;7.518;2024-02-28T00:26:25;99637.00;;;3.80
10058;BMP180;5068;51.286;7.518;2024-02-28T00:28:03;99633.00;;;3.80
10058;BMP180;5068;51.286;7.518;2024-02-28T00:29:35;99644.00;;;3.80
10058;BMP180;5068;51.286;7.518;2024-02-28T00:31:09;99635.00;;;3.90
10058;BMP180;5068;51.286;7.518;2024-02-28T00:32:43;99629.00;;;3.80
10058;BMP180;5068;51.286;7.518;2024-02-28T00:34:16;99640.00;;;3.90
10058;BMP180;5068;51.286;7.518;2024-02-28T00:35:48;99641.00;;;3.90
10058;BMP180;5068;51.286;7.518;2024-02-28T00:37:21;99638.00;;;3.90
10058;BMP180;5068;51.286;7.518;2024-02-28T00:38:54;99639.00;;;3.90
10058;BMP180;5068;51.286;7.518;2024-02-28T00:40:27;99639.00;;;3.90
10058;BMP180;5068;51.286;7.518;2024-02-28T00:42:00;99639.00;;;3.90
10058;BMP180;5068;51.286;7.518;2024-02-28T00:43:33;99639.00;;;3.90
10058;BMP180;5068;51.286;7.518;2024-02-28T00:45:08;99643.00;;;3.90
10058;BMP180;5068;51.286;7.518;2024-02-28T00:46:42;99632.00;;;3.90
10058;BMP180;5068;51.286;7.518;2024-02-28T00:48:16;99641.00;;;4.00
10058;BMP180;5068;51.286;7.518;2024-02-28T00:49:50;99649.00;;;4.00
10058;BMP180;5068;51.286;7.518;2024-02-28T00:51:22;99657.00;;;4.00
10058;BMP180;5068;51.286;7.518;2024-02-28T00:52:56;99655.00;;;4.00
10058;BMP180;5068;51.286;7.518;2024-02-28T00:54:28;99646.00;;;4.00
10058;BMP180;5068;51.286;7.518;2024-02-28T00:56:03;99654.00;;;3.90
10058;BMP180;5068;51.286;7.518;2024-02-28T00:57:36;99654.00;;;3.90
10058;BMP180;5068;51.286;7.518;2024-02-28T00:59:09;99672.00;;;3.90
10058;BMP180;5068;51.286;7.518;2024-02-28T01:00:43;99658.00;;;3.90
10058;BMP180;5068;51.286;7.518;2024-02-28T01:02:16;99660.00;;;3.90
10058;BMP180;5068;51.286;7.518;2024-02-28T01:03:50;99669.00;;;3.90
10058;BMP180;5068;51.286;7.518;2024-02-28T01:05:23;99660.00;;;3.90
10058;BMP180;5068;51.286;7.518;2024-02-28T01:06:55;99666.00;;;3.90
10058;BMP180;5068;51.286;7.518;2024-02-28T01:08:29;99661.00;;;3.90
10058;BMP180;5068;51.286;7.518;2024-02-28T01:10:01;99670.00;;;3.90
10058;BMP180;5068;51.286;7.518;2024-02-28T01:11:35;99663.00;;;3.90
10058;BMP180;5068;51.286;7.518;2024-02-28T01:13:07;99665.00;;;3.90
10058;BMP180;5068;51.286;7.518;2024-02-28T01:14:40;99674.00;;;3.90
10058;BMP180;5068;51.286;7.518;2024-02-28T01:16:13;99657.00;;;3.90
10058;BMP180;5068;51.286;7.518;2024-02-28T01:17:46;99664.00;;;4.00
10058;BMP180;5068;51.286;7.518;2024-02-28T01:19:20;99660.00;;;4.00
10058;BMP180;5068;51.286;7.518;2024-02-28T01:20:53;99666.00;;;4.00
10058;BMP180;5068;51.286;7.518;2024-02-28T01:22:26;99658.00;;;4.00
10058;BMP180;5068;51.286;7.518;2024-02-28T01:23:58;99663.00;;;4.00
10058;BMP180;5068;51.286;7.518;2024-02-28T01:25:31;99659.00;;;4.00
10058;BMP180;5068;51.286;7.518;2024-02-28T01:27:04;99664.00;;;4.00
10058;BMP180;5068;51.286;7.518;2024-02-28T01:28:37;99666.00;;;4.00
10058;BMP180;5068;51.286;7.518;2024-02-28T01:30:10;99658.00;;;4.00
10058;BMP180;5068;51.286;7.518;2024-02-28T01:31:44;99658.00;;;4.00
10058;BMP180;5068;51.286;7.518;2024-02-28T01:33:17;99654.00;;;4.00
10058;BMP180;5068;51.286;7.518;2024-02-28T01:34:51;99657.00;;;4.00
10058;BMP180;5068;51.286;7.518;2024-02-28T01:36:24;99659.00;;;4.00
10058;BMP180;5068;51.286;7.518;2024-02-28T01:37:56;99649.00;;;4.00
10058;BMP180;5068;51.286;7.518;2024-02-28T01:39:29;99654.00;;;4.00
10058;BMP180;5068;51.286;7.518;2024-02-28T01:41:02;99655.00;;;4.00
10058;BMP180;5068;51.286;7.518;2024-02-28T01:42:37;99642.00;;;4.00
10058;BMP180;5068;51.286;7.518;2024-02-28T01:44:09;99650.00;;;4.00
10058;BMP180;5068;51.286;7.518;2024-02-28T01:45:42;99646.00;;;3.90
10058;BMP180;5068;51.286;7.518;2024-02-28T01:47:15;99647.00;;;3.90
10058;BMP180;5068;51.286;7.518;2024-02-28T01:48:49;99647.00;;;3.90
10058;BMP180;5068;51.286;7.518;2024-02-28T01:50:23;99649.00;;;3.90
10058;BMP180;5068;51.286;7.518;2024-02-28T01:51:56;99648.00;;;3.90
10058;BMP180;5068;51.286;7.518;2024-02-28T01:53:29;99645.00;;;3.90
10058;BMP180;5068;51.286;7.518;2024-02-28T01:55:03;99645.00;;;3.90
10058;BMP180;5068;51.286;7.518;2024-02-28T01:56:38;99634.00;;;3.90
10058;BMP180;5068;51.286;7.518;2024-02-28T01:58:12;99639.00;;;3.90
10058;BMP180;5068;51.286;7.518;2024-02-28T01:59:46;99635.00;;;3.90
10058;BMP180;5068;51.286;7.518;2024-02-28T02:01:19;99638.00;;;3.90
10058;BMP180;5068;51.286;7.518;2024-02-28T02:02:56;99640.00;;;3.90
10058;BMP180;5068;51.286;7.518;2024-02-28T02:04:29;99639.00;;;3.90
10058;BMP180;5068;51.286;7.518;2024-02-28T02:06:05;99637.00;;;3.90
10058;BMP180;5068;51.286;7.518;2024-02-28T02:07:38;99629.00;;;3.90
10058;BMP180;5068;51.286;7.518;2024-02-28T02:09:11;99636.00;;;3.90
10058;BMP180;5068;51.286;7.518;2024-02-28T02:10:44;99625.00;;;3.90
10058;BMP180;5068;51.286;7.518;2024-02-28T02:12:17;99627.00;;;3.90
10058;BMP180;5068;51.286;7.518;2024-02-28T02:13:53;99626.00;;;3.90
10058;BMP180;5068;51.286;7.518;2024-02-28T02:15:29;99631.00;;;3.90
10058;BMP180;5068;51.286;7.518;2024-02-28T02:17:02;99624.00;;;3.90
10058;BMP180;5068;51.286;7.518;2024-02-28T02:18:35;99637.00;;;3.90
10058;BMP180;5068;51.286;7.518;2024-02-28T02:20:11;99625.00;;;3.90
10058;BMP180;5068;51.286;7.518;2024-02-28T02:21:52;99638.00;;;3.80
10058;BMP180;5068;51.286;7.518;2024-02-28T02:23:26;99634.00;;;3.80
10058;BMP180;5068;51.286;7.518;2024-02-28T02:25:02;99640.00;;;3.80
10058;BMP180;5068;51.286;7.518;2024-02-28T02:26:34;99632.00;;;3.80
10058;BMP180;5068;51.286;7.518;2024-02-28T02:28:08;99644.00;;;3.80
10058;BMP180;5068;51.286;7.518;2024-02-28T02:29:40;99643.00;;;3.80
10058;BMP180;5068;51.286;7.518;2024-02-28T02:31:14;99651.00;;;3.90
10058;BMP180;5068;51.286;7.518;2024-02-28T02:32:46;99653.00;;;3.90
10058;BMP180;5068;51.286;7.518;2024-02-28T02:34:20;99655.00;;;3.90
10058;BMP180;5068;51.286;7.518;2024-02-28T02:35:53;99657.00;;;3.90
10058;BMP180;5068;51.286;7.518;2024-02-28T02:37:29;99650.00;;;3.90
10058;BMP180;5068;51.286;7.518;2024-02-28T02:39:03;99650.00;;;3.90
10058;BMP180;5068;51.286;7.518;2024-02-28T02:40:36;99652.00;;;3.90
10058;BMP180;5068;51.286;7.518;2024-02-28T02:42:10;99656.00;;;3.90
10058;BMP180;5068;51.286;7.518;2024-02-28T02:43:45;99647.00;;;3.90
10058;BMP180;5068;51.286;7.518;2024-02-28T02:45:18;99645.00;;;3.90
10058;BMP180;5068;51.286;7.518;2024-02-28T02:46:51;99645.00;;;3.90
10058;BMP180;5068;51.286;7.518;2024-02-28T02:48:24;99650.00;;;3.90
10058;BMP180;5068;51.286;7.518;2024-02-28T02:49:56;99649.00;;;3.90
10058;BMP180;5068;51.286;7.518;2024-02-28T02:51:30;99650.00;;;3.90
10058;BMP180;5068;51.286;7.518;2024-02-28T02:53:02;99644.00;;;3.80
10058;BMP180;5068;51.286;7.518;2024-02-28T02:54:38;99652.00;;;3.80
10058;BMP180;5068;51.286;7.518;2024-02-28T02:56:10;99647.00;;;3.80
10058;BMP180;5068;51.286;7.518;2024-02-28T02:57:43;99653.00;;;3.80
10058;BMP180;5068;51.286;7.518;2024-02-28T02:59:16;99647.00;;;3.80
10058;BMP180;5068;51.286;7.518;2024-02-28T03:00:51;99650.00;;;3.80
10058;BMP180;5068;51.286;7.518;2024-02-28T03:02:24;99644.00;;;3.80
10058;BMP180;5068;51.286;7.518;2024-02-28T03:03:57;99651.00;;;3.80
10058;BMP180;5068;51.286;7.518;2024-02-28T03:05:30;99655.00;;;3.70
10058;BMP180;5068;51.286;7.518;2024-02-28T03:07:03;99662.00;;;3.80
10058;BMP180;5068;51.286;7.518;2024-02-28T03:08:36;99661.00;;;3.70
10058;BMP180;5068;51.286;7.518;2024-02-28T03:10:11;99658.00;;;3.70
10058;BMP180;5068;51.286;7.518;2024-02-28T03:11:43;99665.00;;;3.70
10058;BMP180;5068;51.286;7.518;2024-02-28T03:13:16;99659.00;;;3.70
10058;BMP180;5068;51.286;7.518;2024-02-28T03:14:49;99664.00;;;3.70
10058;BMP180;5068;51.286;7.518;2024-02-28T03:16:22;99661.00;;;3.70
10058;BMP180;5068;51.286;7.518;2024-02-28T03:17:54;99658.00;;;3.70
10058;BMP180;5068;51.286;7.518;2024-02-28T03:19:28;99664.00;;;3.70
10058;BMP180;5068;51.286;7.518;2024-02-28T03:21:00;99660.00;;;3.70
10058;BMP180;5068;51.286;7.518;2024-02-28T03:22:34;99667.00;;;3.70
10058;BMP180;5068;51.286;7.518;2024-02-28T03:24:07;99660.00;;;3.70
10058;BMP180;5068;51.286;7.518;2024-02-28T03:25:41;99664.00;;;3.70
10058;BMP180;5068;51.286;7.518;2024-02-28T03:27:14;99666.00;;;3.70
10058;BMP180;5068;51.286;7.518;2024-02-28T03:28:47;99673.00;;;3.70
10058;BMP180;5068;51.286;7.518;2024-02-28T03:30:20;99673.00;;;3.70
10058;BMP180;5068;51.286;7.518;2024-02-28T03:31:52;99672.00;;;3.70
10058;BMP180;5068;51.286;7.518;2024-02-28T03:33:26;99671.00;;;3.70
10058;BMP180;5068;51.286;7.518;2024-02-28T03:34:58;99680.00;;;3.70
10058;BMP180;5068;51.286;7.518;2024-02-28T03:36:31;99666.00;;;3.60
10058;BMP180;5068;51.286;7.518;2024-02-28T03:38:05;99674.00;;;3.60
10058;BMP180;5068;51.286;7.518;2024-02-28T03:39:38;99674.00;;;3.60
10058;BMP180;5068;51.286;7.518;2024-02-28T03:41:12;99676.00;;;3.60
10058;BMP180;5068;51.286;7.518;2024-02-28T03:42:45;99680.00;;;3.70
10058;BMP180;5068;51.286;7.518;2024-02-28T03:44:18;99675.00;;;3.70
10058;BMP180;5068;51.286;7.518;2024-02-28T03:45:53;99681.00;;;3.70
10058;BMP180;5068;51.286;7.518;2024-02-28T03:47:26;99680.00;;;3.70
10058;BMP180;5068;51.286;7.518;2024-02-28T03:48:59;99688.00;;;3.70
10058;BMP180;5068;51.286;7.518;2024-02-28T03:50:32;99687.00;;;3.70
10058;BMP180;5068;51.286;7.518;2024-02-28T03:52:05;99682.00;;;3.70
10058;BMP180;5068;51.286;7.518;2024-02-28T03:53:38;99688.00;;;3.80
10058;BMP180;5068;51.286;7.518;2024-02-28T03:55:13;99694.00;;;3.80
10058;BMP180;5068;51.286;7.518;2024-02-28T03:56:48;99688.00;;;3.80
10058;BMP180;5068;51.286;7.518;2024-02-28T03:58:22;99696.00;;;3.80
10058;BMP180;5068;51.286;7.518;2024-02-28T03:59:55;99700.00;;;3.80
10058;BMP180;5068;51.286;7.518;2024-02-28T04:01:27;99699.00;;;3.90
10058;BMP180;5068;51.286;7.518;2024-02-28T04:03:00;99690.00;;;3.90
10058;BMP180;5068;51.286;7.518;2024-02-28T04:04:32;99692.00;;;3.90
10058;BMP180;5068;51.286;7.518;2024-02-28T04:06:06;99695.00;;;3.90
10058;BMP180;5068;51.286;7.518;2024-02-28T04:07:39;99704.00;;;3.90
10058;BMP180;5068;51.286;7.518;2024-02-28T04:09:12;99697.00;;;3.90
10058;BMP180;5068;51.286;7.518;2024-02-28T04:10:44;99701.00;;;4.00
10058;BMP180;5068;51.286;7.518;2024-02-28T04:12:19;99703.00;;;4.00
10058;BMP180;5068;51.286;7.518;2024-02-28T04:13:51;99703.00;;;4.00
10058;BMP180;5068;51.286;7.518;2024-02-28T04:15:24;99705.00;;;4.00
10058;BMP180;5068;51.286;7.518;2024-02-28T04:16:58;99703.00;;;4.00
10058;BMP180;5068;51.286;7.518;2024-02-28T04:18:31;99700.00;;;4.00
10058;BMP180;5068;51.286;7.518;2024-02-28T04:20:08;99702.00;;;4.00
10058;BMP180;5068;51.286;7.518;2024-02-28T04:21:41;99708.00;;;4.00
10058;BMP180;5068;51.286;7.518;2024-02-28T04:23:13;99721.00;;;4.00
10058;BMP180;5068;51.286;7.518;2024-02-28T04:24:46;99715.00;;;4.00
10058;BMP180;5068;51.286;7.518;2024-02-28T04:26:19;99716.00;;;4.00
10058;BMP180;5068;51.286;7.518;2024-02-28T04:27:53;99714.00;;;4.00
10058;BMP180;5068;51.286;7.518;2024-02-28T04:29:25;99717.00;;;4.00
10058;BMP180;5068;51.286;7.518;2024-02-28T04:30:59;99716.00;;;4.00
10058;BMP180;5068;51.286;7.518;2024-02-28T04:32:31;99720.00;;;4.00
10058;BMP180;5068;51.286;7.518;2024-02-28T04:34:04;99721.00;;;4.00
10058;BMP180;5068;51.286;7.518;2024-02-28T04:35:37;99724.00;;;4.00
10058;BMP180;5068;51.286;7.518;2024-02-28T04:37:10;99717.00;;;4.00
10058;BMP180;5068;51.286;7.518;2024-02-28T04:38:44;99723.00;;;4.00
10058;BMP180;5068;51.286;7.518;2024-02-28T04:40:16;99725.00;;;4.00
10058;BMP180;5068;51.286;7.518;2024-02-28T04:41:49;99726.00;;;4.00
10058;BMP180;5068;51.286;7.518;2024-02-28T04:43:23;99731.00;;;4.00
10058;BMP180;5068;51.286;7.518;2024-02-28T04:44:56;99725.00;;;4.10
10058;BMP180;5068;51.286;7.518;2024-02-28T04:46:28;99734.00;;;4.10
10058;BMP180;5068;51.286;7.518;2024-02-28T04:48:02;99734.00;;;4.10
10058;BMP180;5068;51.286;7.518;2024-02-28T04:49:37;99727.00;;;4.10
10058;BMP180;5068;51.286;7.518;2024-02-28T04:51:10;99725.00;;;4.10
10058;BMP180;5068;51.286;7.518;2024-02-28T04:52:43;99728.00;;;4.10
10058;BMP180;5068;51.286;7.518;2024-02-28T04:54:15;99731.00;;;4.20
10058;BMP180;5068;51.286;7.518;2024-02-28T04:55:49;99733.00;;;4.20
10058;BMP180;5068;51.286;7.518;2024-02-28T04:57:22;99738.00;;;4.20
10058;BMP180;5068;51.286;7.518;2024-02-28T04:58:56;99735.00;;;4.20
10058;BMP180;5068;51.286;7.518;2024-02-28T05:00:30;99744.00;;;4.20
10058;BMP180;5068;51.286;7.518;2024-02-28T05:02:02;99732.00;;;4.20
10058;BMP180;5068;51.286;7.518;2024-02-28T05:03:36;99742.00;;;4.20
10058;BMP180;5068;51.286;7.518;2024-02-28T05:05:09;99736.00;;;4.20
10058;BMP180;5068;51.286;7.518;2024-02-28T05:06:42;99736.00;;;4.20
10058;BMP180;5068;51.286;7.518;2024-02-28T05:08:15;99744.00;;;4.30
10058;BMP180;5068;51.286;7.518;2024-02-28T05:09:48;99740.00;;;4.30
10058;BMP180;5068;51.286;7.518;2024-02-28T05:11:20;99739.00;;;4.30
10058;BMP180;5068;51.286;7.518;2024-02-28T05:12:54;99747.00;;;4.30
10058;BMP180;5068;51.286;7.518;2024-02-28T05:14:27;99748.00;;;4.30
10058;BMP180;5068;51.286;7.518;2024-02-28T05:16:00;99757.00;;;4.30
10058;BMP180;5068;51.286;7.518;2024-02-28T05:17:33;99749.00;;;4.30
10058;BMP180;5068;51.286;7.518;2024-02-28T05:19:07;99755.00;;;4.30
10058;BMP180;5068;51.286;7.518;2024-02-28T05:20:39;99758.00;;;4.30
10058;BMP180;5068;51.286;7.518;2024-02-28T05:22:12;99754.00;;;4.30
10058;BMP180;5068;51.286;7.518;2024-02-28T05:23:45;99761.00;;;4.30
10058;BMP180;5068;51.286;7.518;2024-02-28T05:25:19;99762.00;;;4.30
10058;BMP180;5068;51.286;7.518;2024-02-28T05:26:52;99756.00;;;4.30
10058;BMP180;5068;51.286;7.518;2024-02-28T05:28:24;99754.00;;;4.30
10058;BMP180;5068;51.286;7.518;2024-02-28T05:30:00;99764.00;;;4.30
10058;BMP180;5068;51.286;7.518;2024-02-28T05:31:34;99767.00;;;4.40
10058;BMP180;5068;51.286;7.518;2024-02-28T05:33:08;99773.00;;;4.40
10058;BMP180;5068;51.286;7.518;2024-02-28T05:34:41;99770.00;;;4.40
10058;BMP180;5068;51.286;7.518;2024-02-28T05:36:14;99780.00;;;4.40
10058;BMP180;5068;51.286;7.518;2024-02-28T05:37:47;99776.00;;;4.40
10058;BMP180;5068;51.286;7.518;2024-02-28T05:39:20;99776.00;;;4.40
10058;BMP180;5068;51.286;7.518;2024-02-28T05:40:52;99780.00;;;4.40
10058;BMP180;5068;51.286;7.518;2024-02-28T05:42:25;99779.00;;;4.50
10058;BMP180;5068;51.286;7.518;2024-02-28T05:43:58;99782.00;;;4.50
10058;BMP180;5068;51.286;7.518;2024-02-28T05:45:33;99785.00;;;4.50
10058;BMP180;5068;51.286;7.518;2024-02-28T05:47:05;99790.00;;;4.50
10058;BMP180;5068;51.286;7.518;2024-02-28T05:48:40;99785.00;;;4.50
10058;BMP180;5068;51.286;7.518;2024-02-28T05:50:13;99770.00;;;4.50
10058;BMP180;5068;51.286;7.518;2024-02-28T05:51:46;99782.00;;;4.50
10058;BMP180;5068;51.286;7.518;2024-02-28T05:53:19;99782.00;;;4.50
10058;BMP180;5068;51.286;7.518;2024-02-28T05:54:53;99781.00;;;4.50
10058;BMP180;5068;51.286;7.518;2024-02-28T05:56:25;99785.00;;;4.50
10058;BMP180;5068;51.286;7.518;2024-02-28T05:57:58;99779.00;;;4.50
10058;BMP180;5068;51.286;7.518;2024-02-28T05:59:30;99776.00;;;4.50
10058;BMP180;5068;51.286;7.518;2024-02-28T06:01:05;99787.00;;;4.50
10058;BMP180;5068;51.286;7.518;2024-02-28T06:02:38;99781.00;;;4.50
10058;BMP180;5068;51.286;7.518;2024-02-28T06:04:11;99784.00;;;4.50
10058;BMP180;5068;51.286;7.518;2024-02-28T06:05:45;99787.00;;;4.50
10058;BMP180;5068;51.286;7.518;2024-02-28T06:07:19;99789.00;;;4.60
10058;BMP180;5068;51.286;7.518;2024-02-28T06:08:51;99798.00;;;4.60
10058;BMP180;5068;51.286;7.518;2024-02-28T06:10:24;99800.00;;;4.60
10058;BMP180;5068;51.286;7.518;2024-02-28T06:11:56;99798.00;;;4.60
10058;BMP180;5068;51.286;7.518;2024-02-28T06:13:32;99796.00;;;4.60
10058;BMP180;5068;51.286;7.518;2024-02-28T06:15:05;99808.00;;;4.70
10058;BMP180;5068;51.286;7.518;2024-02-28T06:16:40;99802.00;;;4.70
10058;BMP180;5068;51.286;7.518;2024-02-28T06:18:12;99801.00;;;4.70
10058;BMP180;5068;51.286;7.518;2024-02-28T06:19:46;99813.00;;;4.70
10058;BMP180;5068;51.286;7.518;2024-02-28T06:21:22;99812.00;;;4.70
10058;BMP180;5068;51.286;7.518;2024-02-28T06:22:55;99810.00;;;4.70
10058;BMP180;5068;51.286;7.518;2024-02-28T06:24:28;99823.00;;;4.70
10058;BMP180;5068;51.286;7.518;2024-02-28T06:26:02;99812.00;;;4.80
10058;BMP180;5068;51.286;7.518;2024-02-28T06:27:34;99823.00;;;4.80
10058;BMP180;5068;51.286;7.518;2024-02-28T06:29:07;99829.00;;;4.80
10058;BMP180;5068;51.286;7.518;2024-02-28T06:30:39;99825.00;;;4.80
10058;BMP180;5068;51.286;7.518;2024-02-28T06:32:15;99829.00;;;4.80
10058;BMP180;5068;51.286;7.518;2024-02-28T06:33:48;99832.00;;;4.80
10058;BMP180;5068;51.286;7.518;2024-02-28T06:35:20;99834.00;;;4.80
10058;BMP180;5068;51.286;7.518;2024-02-28T06:36:53;99847.00;;;4.80
10058;BMP180;5068;51.286;7.518;2024-02-28T06:38:26;99850.00;;;4.80
10058;BMP180;5068;51.286;7.518;2024-02-28T06:39:59;99848.00;;;4.80
10058;BMP180;5068;51.286;7.518;2024-02-28T06:41:32;99851.00;;;4.80
10058;BMP180;5068;51.286;7.518;2024-02-28T06:43:05;99844.00;;;4.80
10058;BMP180;5068;51.286;7.518;2024-02-28T06:44:37;99851.00;;;4.80
10058;BMP180;5068;51.286;7.518;2024-02-28T06:46:11;99845.00;;;4.80
10058;BMP180;5068;51.286;7.518;2024-02-28T06:47:44;99855.00;;;4.80
10058;BMP180;5068;51.286;7.518;2024-02-28T06:49:18;99850.00;;;4.80
10058;BMP180;5068;51.286;7.518;2024-02-28T06:50:50;99857.00;;;4.80
10058;BMP180;5068;51.286;7.518;2024-02-28T06:52:23;99861.00;;;4.80
10058;BMP180;5068;51.286;7.518;2024-02-28T06:53:55;99859.00;;;4.80
10058;BMP180;5068;51.286;7.518;2024-02-28T06:55:29;99850.00;;;4.80
10058;BMP180;5068;51.286;7.518;2024-02-28T06:57:07;99860.00;;;4.90
10058;BMP180;5068;51.286;7.518;2024-02-28T06:58:40;99861.00;;;4.90
10058;BMP180;5068;51.286;7.518;2024-02-28T07:00:13;99856.00;;;4.90
10058;BMP180;5068;51.286;7.518;2024-02-28T07:01:48;99852.00;;;4.90
10058;BMP180;5068;51.286;7.518;2024-02-28T07:03:22;99853.00;;;5.00
10058;BMP180;5068;51.286;7.518;2024-02-28T07:04:55;99844.00;;;5.00
10058;BMP180;5068;51.286;7.518;2024-02-28T07:06:28;99852.00;;;5.00
10058;BMP180;5068;51.286;7.518;2024-02-28T07:08:00;99848.00;;;5.00
10058;BMP180;5068;51.286;7.518;2024-02-28T07:09:34;99850.00;;;5.00
10058;BMP180;5068;51.286;7.518;2024-02-28T07:11:13;99853.00;;;5.10
10058;BMP180;5068;51.286;7.518;2024-02-28T07:12:47;99849.00;;;5.10
10058;BMP180;5068;51.286;7.518;2024-02-28T07:14:20;99846.00;;;5.10
10058;BMP180;5068;51.286;7.518;2024-02-28T07:15:53;99850.00;;;5.10
10058;BMP180;5068;51.286;7.518;2024-02-28T07:17:27;99849.00;;;5.10
10058;BMP180;5068;51.286;7.518;2024-02-28T07:19:01;99847.00;;;5.10
10058;BMP180;5068;51.286;7.518;2024-02-28T07:20:34;99852.00;;;5.10
10058;BMP180;5068;51.286;7.518;2024-02-28T07:22:06;99849.00;;;5.20
10058;BMP180;5068;51.286;7.518;2024-02-28T07:23:40;99845.00;;;5.20
10058;BMP180;5068;51.286;7.518;2024-02-28T07:25:13;99849.00;;;5.20
10058;BMP180;5068;51.286;7.518;2024-02-28T07:26:46;99854.00;;;5.20
10058;BMP180;5068;51.286;7.518;2024-02-28T07:28:18;99845.00;;;5.20
10058;BMP180;5068;51.286;7.518;2024-02-28T07:29:51;99855.00;;;5.30
10058;BMP180;5068;51.286;7.518;2024-02-28T07:31:23;99853.00;;;5.30
10058;BMP180;5068;51.286;7.518;2024-02-28T07:32:57;99853.00;;;5.30
10058;BMP180;5068;51.286;7.518;2024-02-28T07:34:31;99864.00;;;5.30
10058;BMP180;5068;51.286;7.518;2024-02-28T07:36:06;99861.00;;;5.30
10058;BMP180;5068;51.286;7.518;2024-02-28T07:37:38;99868.00;;;5.30
10058;BMP180;5068;51.286;7.518;2024-02-28T07:39:11;99863.00;;;5.40
10058;BMP180;5068;51.286;7.518;2024-02-28T07:40:44;99864.00;;;5.40
10058;BMP180;5068;51.286;7.518;2024-02-28T07:42:17;99871.00;;;5.40
10058;BMP180;5068;51.286;7.518;2024-02-28T07:43:50;99862.00;;;5.40
10058;BMP180;5068;51.286;7.518;2024-02-28T07:45:23;99863.00;;;5.40
10058;BMP180;5068;51.286;7.518;2024-02-28T07:46:57;99864.00;;;5.50
10058;BMP180;5068;51.286;7.518;2024-02-28T07:48:30;99866.00;;;5.50
10058;BMP180;5068;51.286;7.518;2024-02-28T07:50:06;99873.00;;;5.50
10058;BMP180;5068;51.286;7.518;2024-02-28T07:51:39;99865.00;;;5.60
10058;BMP180;5068;51.286;7.518;2024-02-28T07:53:12;99871.00;;;5.60
10058;BMP180;5068;51.286;7.518;2024-02-28T07:54:46;99862.00;;;5.60
10058;BMP180;5068;51.286;7.518;2024-02-28T07:56:18;99867.00;;;5.60
10058;BMP180;5068;51.286;7.518;2024-02-28T07:57:53;99861.00;;;5.60
10058;BMP180;5068;51.286;7.518;2024-02-28T07:59:26;99863.00;;;5.60
10058;BMP180;5068;51.286;7.518;2024-02-28T08:00:59;99868.00;;;5.60
10058;BMP180;5068;51.286;7.518;2024-02-28T08:02:32;99866.00;;;5.70
10058;BMP180;5068;51.286;7.518;2024-02-28T08:04:05;99868.00;;;5.70
10058;BMP180;5068;51.286;7.518;2024-02-28T08:05:39;99871.00;;;5.70
10058;BMP180;5068;51.286;7.518;2024-02-28T08:07:12;99871.00;;;5.70
10058;BMP180;5068;51.286;7.518;2024-02-28T08:08:45;99866.00;;;5.70
10058;BMP180;5068;51.286;7.518;2024-02-28T08:10:19;99869.00;;;5.70
10058;BMP180;5068;51.286;7.518;2024-02-28T08:11:51;99868.00;;;5.70
10058;BMP180;5068;51.286;7.518;2024-02-28T08:13:25;99863.00;;;5.70
10058;BMP180;5068;51.286;7.518;2024-02-28T08:15:00;99856.00;;;5.70
10058;BMP180;5068;51.286;7.518;2024-02-28T08:16:34;99860.00;;;5.80
10058;BMP180;5068;51.286;7.518;2024-02-28T08:18:07;99868.00;;;5.80
10058;BMP180;5068;51.286;7.518;2024-02-28T08:19:42;99861.00;;;5.80
10058;BMP180;5068;51.286;7.518;2024-02-28T08:21:15;99861.00;;;5.80
10058;BMP180;5068;51.286;7.518;2024-02-28T08:22:50;99866.00;;;5.80
10058;BMP180;5068;51.286;7.518;2024-02-28T08:24:24;99860.00;;;5.80
10058;BMP180;5068;51.286;7.518;2024-02-28T08:25:58;99865.00;;;5.90
10058;BMP180;5068;51.286;7.518;2024-02-28T08:27:30;99872.00;;;5.90
10058;BMP180;5068;51.286;7.518;2024-02-28T08:29:05;99882.00;;;5.90
10058;BMP180;5068;51.286;7.518;2024-02-28T08:30:37;99875.00;;;5.90
10058;BMP180;5068;51.286;7.518;2024-02-28T08:32:11;99874.00;;;6.00
10058;BMP180;5068;51.286;7.518;2024-02-28T08:33:44;99871.00;;;6.00
10058;BMP180;5068;51.286;7.518;2024-02-28T08:35:19;99878.00;;;6.00
10058;BMP180;5068;51.286;7.518;2024-02-28T08:36:54;99882.00;;;6.00
10058;BMP180;5068;51.286;7.518;2024-02-28T08:38:27;99885.00;;;6.00
10058;BMP180;5068;51.286;7.518;2024-02-28T08:40:00;99875.00;;;6.10
10058;BMP180;5068;51.286;7.518;2024-02-28T08:41:34;99888.00;;;6.10
10058;BMP180;5068;51.286;7.518;2024-02-28T08:43:06;99882.00;;;6.10
10058;BMP180;5068;51.286;7.518;2024-02-28T08:44:39;99885.00;;;6.10
10058;BMP180;5068;51.286;7.518;2024-02-28T08:46:14;99874.00;;;6.20
10058;BMP180;5068;51.286;7.518;2024-02-28T08:47:46;99880.00;;;6.20
10058;BMP180;5068;51.286;7.518;2024-02-28T08:49:20;99879.00;;;6.20
10058;BMP180;5068;51.286;7.518;2024-02-28T08:50:53;99875.00;;;6.20
10058;BMP180;5068;51.286;7.518;2024-02-28T08:52:27;99874.00;;;6.30
10058;BMP180;5068;51.286;7.518;2024-02-28T08:54:00;99882.00;;;6.30
10058;BMP180;5068;51.286;7.518;2024-02-28T08:55:35;99884.00;;;6.40
10058;BMP180;5068;51.286;7.518;2024-02-28T08:57:08;99887.00;;;6.40
10058;BMP180;5068;51.286;7.518;2024-02-28T08:58:41;99884.00;;;6.40
10058;BMP180;5068;51.286;7.518;2024-02-28T09:00:15;99883.00;;;6.40
10058;BMP180;5068;51.286;7.518;2024-02-28T09:01:50;99881.00;;;6.40
10058;BMP180;5068;51.286;7.518;2024-02-28T09:03:22;99886.00;;;6.50
10058;BMP180;5068;51.286;7.518;2024-02-28T09:04:56;99900.00;;;6.50
10058;BMP180;5068;51.286;7.518;2024-02-28T09:06:29;99886.00;;;6.50
10058;BMP180;5068;51.286;7.518;2024-02-28T09:08:04;99886.00;;;6.60
10058;BMP180;5068;51.286;7.518;2024-02-28T09:09:41;99887.00;;;6.60
10058;BMP180;5068;51.286;7.518;2024-02-28T09:11:15;99891.00;;;6.60
10058;BMP180;5068;51.286;7.518;2024-02-28T09:12:48;99882.00;;;6.70
10058;BMP180;5068;51.286;7.518;2024-02-28T09:14:21;99889.00;;;6.70